createdAt,value
2018-12-23T00:01:00.165Z,3.33
2018-12-23T00:03:27.708Z,2.30
2018-12-23T00:05:59.521Z,2.00
2018-12-23T00:08:27.065Z,1.80
2018-12-23T00:10:54.710Z,1.53
2018-12-23T00:13:22.390Z,2.07
2018-12-23T00:15:49.921Z,2.30
2018-12-23T00:18:17.475Z,2.10
2018-12-23T00:20:45.285Z,2.03
2018-12-23T00:23:12.809Z,2.90
2018-12-23T00:25:40.509Z,3.47
2018-12-23T00:28:08.461Z,3.63
2018-12-23T00:30:36.149Z,3.57
2018-12-23T00:33:03.668Z,4.37
2018-12-23T00:35:31.211Z,4.13
2018-12-23T00:37:58.781Z,5.20
2018-12-23T00:40:26.345Z,5.07
2018-12-23T00:42:54.186Z,5.87
2018-12-23T00:45:21.835Z,5.17
2018-12-23T00:47:49.520Z,5.30
2018-12-23T00:50:17.086Z,4.43
2018-12-23T00:52:44.801Z,5.33
2018-12-23T00:55:12.351Z,5.20
2018-12-23T00:57:40.131Z,5.30
2018-12-23T01:00:08.135Z,5.43
2018-12-23T01:02:35.664Z,5.63
2018-12-23T01:05:04.713Z,6.03
2018-12-23T01:07:32.269Z,6.43
2018-12-23T01:09:59.816Z,5.40
2018-12-23T01:12:27.366Z,6.43
2018-12-23T01:14:55.019Z,6.47
2018-12-23T01:17:23.026Z,6.60
2018-12-23T01:19:50.554Z,5.63
2018-12-23T01:22:18.096Z,5.80
2018-12-23T01:24:46.079Z,5.47
2018-12-23T01:27:13.686Z,5.20
2018-12-23T01:29:41.229Z,5.00
2018-12-23T01:32:08.829Z,5.00
2018-12-23T01:34:37.184Z,4.63
2018-12-23T01:37:05.176Z,4.60
2018-12-23T01:39:32.717Z,4.60
2018-12-23T01:42:00.255Z,4.13
2018-12-23T01:44:27.996Z,4.00
2018-12-23T01:46:55.595Z,3.60
2018-12-23T01:49:23.251Z,3.57
2018-12-23T01:51:50.782Z,3.20
2018-12-23T01:54:18.388Z,3.23
2018-12-23T01:56:46.404Z,3.20
2018-12-23T01:59:14.085Z,3.70
2018-12-23T02:01:41.722Z,3.83
2018-12-23T02:04:09.537Z,3.93
2018-12-23T02:06:37.245Z,3.60
2018-12-23T02:09:05.504Z,3.90
2018-12-23T02:11:33.202Z,3.90
2018-12-23T02:14:00.947Z,4.13
2018-12-23T02:16:28.486Z,4.13
2018-12-23T02:18:56.141Z,4.53
2018-12-23T02:21:23.670Z,4.70
2018-12-23T02:23:51.194Z,5.30
2018-12-23T02:26:18.745Z,4.97
2018-12-23T02:28:46.689Z,5.33
2018-12-23T02:31:14.604Z,4.70
2018-12-23T02:33:42.143Z,5.77
2018-12-23T02:36:09.796Z,6.03
2018-12-23T02:38:37.434Z,5.83
2018-12-23T02:41:04.975Z,6.40
2018-12-23T02:43:32.650Z,6.73
2018-12-23T02:46:00.471Z,7.03
2018-12-23T02:48:28.099Z,7.77
2018-12-23T02:50:55.814Z,7.67
2018-12-23T02:53:23.329Z,9.07
2018-12-23T02:55:51.081Z,8.43
2018-12-23T02:58:18.602Z,9.30
2018-12-23T03:00:46.162Z,10.37
2018-12-23T03:03:13.766Z,9.77
2018-12-23T03:05:41.524Z,9.93
2018-12-23T03:08:09.267Z,10.10
2018-12-23T03:10:36.931Z,9.73
2018-12-23T03:13:04.464Z,10.13
2018-12-23T03:15:32.025Z,10.40
2018-12-23T03:17:59.866Z,10.33
2018-12-23T03:20:27.469Z,10.27
2018-12-23T03:22:55.220Z,11.13
2018-12-23T03:25:22.804Z,11.80
2018-12-23T03:27:50.348Z,11.50
2018-12-23T03:30:17.879Z,11.90
2018-12-23T03:32:45.470Z,12.20
2018-12-23T03:35:13.575Z,12.93
2018-12-23T03:37:41.150Z,13.07
2018-12-23T03:40:08.675Z,13.07
2018-12-23T03:42:36.224Z,12.23
2018-12-23T03:45:03.860Z,12.10
2018-12-23T03:47:31.853Z,13.43
2018-12-23T03:49:59.423Z,14.13
2018-12-23T03:52:27.068Z,13.60
2018-12-23T03:54:54.646Z,12.83
2018-12-23T03:57:22.204Z,14.57
2018-12-23T03:59:49.730Z,12.70
2018-12-23T04:02:17.409Z,14.13
2018-12-23T04:04:44.946Z,13.40
2018-12-23T04:07:12.875Z,13.27
2018-12-23T04:09:40.489Z,12.93
2018-12-23T04:12:08.020Z,12.67
2018-12-23T04:14:35.919Z,13.30
2018-12-23T04:17:03.445Z,13.93
2018-12-23T04:19:31.295Z,11.93
2018-12-23T04:21:58.824Z,14.07
2018-12-23T04:24:26.389Z,13.30
2018-12-23T04:26:54.036Z,12.73
2018-12-23T04:29:21.544Z,13.23
2018-12-23T04:31:49.111Z,12.43
2018-12-23T04:34:16.879Z,12.67
2018-12-23T04:36:44.740Z,12.87
2018-12-23T04:39:12.496Z,13.87
2018-12-23T04:41:40.026Z,12.67
2018-12-23T04:44:07.766Z,12.40
2018-12-23T04:46:35.439Z,12.53
2018-12-23T04:49:03.165Z,11.83
2018-12-23T04:51:30.790Z,12.07
2018-12-23T04:53:58.520Z,12.77
2018-12-23T04:56:26.139Z,13.67
2018-12-23T04:58:53.658Z,11.57
2018-12-23T05:01:21.254Z,12.83
2018-12-23T05:03:49.069Z,11.87
2018-12-23T05:06:17.940Z,11.77
2018-12-23T05:08:45.681Z,11.13
2018-12-23T05:11:13.489Z,11.17
2018-12-23T05:13:41.164Z,11.70
2018-12-23T05:16:08.742Z,11.17
2018-12-23T05:18:36.581Z,11.70
2018-12-23T05:21:04.418Z,11.50
2018-12-23T05:23:32.094Z,11.83
2018-12-23T05:25:59.929Z,11.23
2018-12-23T05:28:27.453Z,12.00
2018-12-23T05:30:55.069Z,11.63
2018-12-23T05:33:22.609Z,11.23
2018-12-23T05:35:50.144Z,11.23
2018-12-23T05:38:17.697Z,11.47
2018-12-23T05:40:45.419Z,10.67
2018-12-23T05:43:13.129Z,11.13
2018-12-23T05:45:40.670Z,10.23
2018-12-23T05:48:08.229Z,10.20
2018-12-23T05:50:35.793Z,10.43
2018-12-23T05:53:03.329Z,10.13
2018-12-23T05:55:30.469Z,9.70
2018-12-23T05:57:58.031Z,9.17
2018-12-23T06:00:25.552Z,10.50
2018-12-23T06:02:53.156Z,10.00
2018-12-23T06:05:20.896Z,8.90
2018-12-23T06:07:48.521Z,9.90
2018-12-23T06:10:16.101Z,9.20
2018-12-23T06:12:43.835Z,9.80
2018-12-23T06:15:11.372Z,8.70
2018-12-23T06:17:38.913Z,8.63
2018-12-23T06:20:06.657Z,8.03
2018-12-23T06:22:34.209Z,7.87
2018-12-23T06:25:02.805Z,7.00
2018-12-23T06:27:30.334Z,6.97
2018-12-23T06:29:58.058Z,6.77
2018-12-23T06:32:25.755Z,7.23
2018-12-23T06:34:53.317Z,8.27
2018-12-23T06:37:20.838Z,8.43
2018-12-23T06:39:48.571Z,8.23
2018-12-23T06:42:16.228Z,7.80
2018-12-23T06:44:43.800Z,7.13
2018-12-23T06:47:11.566Z,6.57
2018-12-23T06:49:39.273Z,7.10
2018-12-23T06:52:07.047Z,8.00
2018-12-23T06:54:34.587Z,7.27
2018-12-23T06:57:02.125Z,6.97
2018-12-23T06:59:29.665Z,7.33
2018-12-23T07:01:57.384Z,7.10
2018-12-23T07:04:25.237Z,7.03
2018-12-23T07:06:52.879Z,7.37
2018-12-23T07:09:20.439Z,7.30
2018-12-23T07:11:47.993Z,7.93
2018-12-23T07:14:15.924Z,7.77
2018-12-23T07:16:43.449Z,8.50
2018-12-23T07:19:11.017Z,7.37
2018-12-23T07:21:38.513Z,7.03
2018-12-23T07:24:06.219Z,8.03
2018-12-23T07:26:34.020Z,7.90
2018-12-23T07:29:01.583Z,7.93
2018-12-23T07:31:29.109Z,7.87
2018-12-23T07:33:56.902Z,8.00
2018-12-23T07:36:24.597Z,8.60
2018-12-23T07:38:52.330Z,8.37
2018-12-23T07:41:19.875Z,7.83
2018-12-23T07:43:47.398Z,8.00
2018-12-23T07:46:14.953Z,8.20
2018-12-23T07:48:42.473Z,8.67
2018-12-23T07:51:10.210Z,8.77
2018-12-23T07:53:37.749Z,9.23
2018-12-23T07:56:05.279Z,9.80
2018-12-23T07:58:33.209Z,11.00
2018-12-23T08:01:00.713Z,10.13
2018-12-23T08:03:28.278Z,9.57
2018-12-23T08:05:56.010Z,9.67
2018-12-23T08:08:23.546Z,10.03
2018-12-23T08:10:51.460Z,10.53
2018-12-23T08:13:19.338Z,9.80
2018-12-23T08:15:46.943Z,10.30
2018-12-23T08:18:14.858Z,9.73
2018-12-23T08:20:42.804Z,9.83
2018-12-23T08:23:10.374Z,8.90
2018-12-23T08:25:37.937Z,8.20
2018-12-23T08:28:05.473Z,9.07
2018-12-23T08:30:33.008Z,8.63
2018-12-23T08:33:00.559Z,9.63
2018-12-23T08:35:28.367Z,9.33
2018-12-23T08:37:55.921Z,9.30
2018-12-23T08:40:23.862Z,8.87
2018-12-23T08:42:51.926Z,9.70
2018-12-23T08:45:19.572Z,9.13
2018-12-23T08:47:47.393Z,8.80
2018-12-23T08:50:14.915Z,8.27
2018-12-23T08:52:42.429Z,9.27
2018-12-23T08:55:10.234Z,10.20
2018-12-23T08:57:37.776Z,8.13
2018-12-23T09:00:05.426Z,8.50
2018-12-23T09:02:32.973Z,9.30
2018-12-23T09:05:00.544Z,8.87
2018-12-23T09:07:28.478Z,8.90
2018-12-23T09:09:57.185Z,8.27
2018-12-23T09:12:25.152Z,9.90
2018-12-23T09:14:52.845Z,9.97
2018-12-23T09:17:20.439Z,8.30
2018-12-23T09:19:48.179Z,8.50
2018-12-23T09:22:15.846Z,7.90
2018-12-23T09:24:43.357Z,8.00
2018-12-23T09:27:10.930Z,7.90
2018-12-23T09:29:38.482Z,8.13
2018-12-23T09:32:06.069Z,8.67
2018-12-23T09:34:33.577Z,9.17
2018-12-23T09:37:01.194Z,9.23
2018-12-23T09:39:28.764Z,8.97
2018-12-23T09:41:56.671Z,9.37
2018-12-23T09:44:24.283Z,8.57
2018-12-23T09:46:51.807Z,8.33
2018-12-23T09:49:19.502Z,7.63
2018-12-23T09:51:47.368Z,8.27
2018-12-23T09:54:15.242Z,8.37
2018-12-23T09:56:42.804Z,8.37
2018-12-23T09:59:10.378Z,8.03
2018-12-23T10:01:37.918Z,8.27
2018-12-23T10:04:05.622Z,8.47
2018-12-23T10:06:33.327Z,7.90
2018-12-23T10:09:01.203Z,8.00
2018-12-23T10:11:28.809Z,7.73
2018-12-23T10:13:56.443Z,7.27
2018-12-23T10:16:23.987Z,6.60
2018-12-23T10:18:51.807Z,6.83
2018-12-23T10:21:19.399Z,6.37
2018-12-23T10:23:46.924Z,7.80
2018-12-23T10:26:14.475Z,6.87
2018-12-23T10:28:42.266Z,7.47
2018-12-23T10:31:09.898Z,6.60
2018-12-23T10:33:37.620Z,6.70
2018-12-23T10:36:05.538Z,6.37
2018-12-23T10:38:33.193Z,6.63
2018-12-23T10:41:00.910Z,7.37
2018-12-23T10:43:28.673Z,6.40
2018-12-23T10:45:56.495Z,7.10
2018-12-23T10:48:24.188Z,6.77
2018-12-23T10:50:51.749Z,7.27
2018-12-23T10:53:19.278Z,7.13
2018-12-23T10:55:48.005Z,7.40
2018-12-23T10:58:15.572Z,7.70
2018-12-23T11:00:43.092Z,7.20
2018-12-23T11:03:10.879Z,6.77
2018-12-23T11:05:38.479Z,6.20
2018-12-23T11:08:06.030Z,6.57
2018-12-23T11:10:33.773Z,7.30
2018-12-23T11:13:01.748Z,10.20
2018-12-23T11:15:29.405Z,10.80
2018-12-23T11:17:56.950Z,9.10
2018-12-23T11:20:24.652Z,9.47
2018-12-23T11:22:52.493Z,6.50
2018-12-23T11:25:20.287Z,5.80
2018-12-23T11:27:47.828Z,5.60
2018-12-23T11:30:15.722Z,5.53
2018-12-23T11:32:43.399Z,5.67
2018-12-23T11:35:11.058Z,5.63
2018-12-23T11:37:38.625Z,4.63
2018-12-23T11:40:07.823Z,4.70
2018-12-23T11:42:35.373Z,5.60
2018-12-23T11:45:03.051Z,5.33
2018-12-23T11:47:30.616Z,5.17
2018-12-23T11:49:58.155Z,5.23
2018-12-23T11:52:25.936Z,6.27
2018-12-23T11:54:54.093Z,5.77
2018-12-23T11:57:21.683Z,5.60
2018-12-23T11:59:49.268Z,5.80
2018-12-23T12:02:16.790Z,4.90
2018-12-23T12:04:44.656Z,5.40
2018-12-23T12:07:12.425Z,4.83
2018-12-23T12:09:40.041Z,5.10
2018-12-23T12:12:07.781Z,5.70
2018-12-23T12:14:35.371Z,5.60
2018-12-23T12:17:02.942Z,5.87
2018-12-23T12:19:30.562Z,6.07
2018-12-23T12:21:58.490Z,5.63
2018-12-23T12:24:26.303Z,5.73
2018-12-23T12:26:53.832Z,5.53
2018-12-23T12:29:21.819Z,5.43
2018-12-23T12:31:49.569Z,5.40
2018-12-23T12:34:17.172Z,5.00
2018-12-23T12:36:44.867Z,2.90
2018-12-23T12:39:12.424Z,2.10
2018-12-23T12:41:40.190Z,1.93
2018-12-23T12:44:07.736Z,1.80
2018-12-23T12:46:35.494Z,2.10
2018-12-23T12:49:03.062Z,2.70
2018-12-23T12:51:30.614Z,1.87
2018-12-23T12:53:58.259Z,2.37
2018-12-23T12:56:26.021Z,2.47
2018-12-23T12:58:53.758Z,4.15
2018-12-23T13:01:21.310Z,4.07
2018-12-23T13:03:48.850Z,4.70
2018-12-23T13:06:16.636Z,4.17
2018-12-23T13:08:44.162Z,4.00
2018-12-23T13:11:11.875Z,4.40
2018-12-23T13:13:39.569Z,4.13
2018-12-23T13:16:07.483Z,4.90
2018-12-23T13:18:35.175Z,5.30
2018-12-23T13:21:02.927Z,6.60
2018-12-23T13:23:30.463Z,5.73
2018-12-23T13:25:58.019Z,5.63
2018-12-23T13:28:25.813Z,6.47
2018-12-23T13:30:53.670Z,6.13
2018-12-23T13:33:21.381Z,6.23
2018-12-23T13:35:48.970Z,5.97
2018-12-23T13:39:09.087Z,5.60
2018-12-23T13:41:47.808Z,6.17
2018-12-23T13:44:28.566Z,8.20
2018-12-23T13:47:09.609Z,7.70
2018-12-23T13:49:50.348Z,10.67
2018-12-23T13:52:31.413Z,12.70
2018-12-23T13:55:12.203Z,11.77
2018-12-23T13:57:53.076Z,10.80
2018-12-23T14:00:34.137Z,8.30
2018-12-23T14:03:15.373Z,8.73
2018-12-23T14:05:56.333Z,8.57
2018-12-23T14:08:36.984Z,11.13
2018-12-23T14:11:17.853Z,10.63
2018-12-23T14:13:58.748Z,8.93
2018-12-23T14:16:39.753Z,7.40
2018-12-23T14:19:20.973Z,7.27
2018-12-23T14:22:01.962Z,8.20
2018-12-23T14:24:40.965Z,8.00
2018-12-23T14:27:29.050Z,8.40
2018-12-23T14:30:17.020Z,6.43
2018-12-23T14:33:05.015Z,12.10
2018-12-23T14:35:52.970Z,13.90
2018-12-23T14:41:34.306Z,6.93
2018-12-23T14:47:29.215Z,7.47
2018-12-23T14:50:17.165Z,5.40
2018-12-23T14:58:54.131Z,9.47
2018-12-23T15:01:42.151Z,10.17
2018-12-23T15:04:30.241Z,10.40
2018-12-23T15:07:18.226Z,11.37
2018-12-23T15:10:26.908Z,8.80
2018-12-23T15:13:14.863Z,8.23
2018-12-23T15:16:02.548Z,7.97
2018-12-23T15:18:50.545Z,7.67
2018-12-23T15:21:38.490Z,7.93
2018-12-23T15:24:26.610Z,8.40
2018-12-23T15:27:14.590Z,8.50
2018-12-23T15:30:02.550Z,8.87
2018-12-23T15:32:43.482Z,9.23
2018-12-23T15:35:24.034Z,10.10
2018-12-23T15:38:05.371Z,8.67
2018-12-23T15:40:46.529Z,9.00
2018-12-23T15:43:27.723Z,7.83
2018-12-23T15:46:08.497Z,6.17
2018-12-23T15:48:49.014Z,6.60
2018-12-23T15:51:30.044Z,5.67
2018-12-23T15:54:11.075Z,5.43
2018-12-23T15:56:51.764Z,6.53
2018-12-23T15:59:32.831Z,6.80
2018-12-23T16:02:14.185Z,6.07
2018-12-23T16:04:55.059Z,5.33
2018-12-23T16:07:35.591Z,6.60
2018-12-23T16:10:16.346Z,6.13
2018-12-23T16:12:57.281Z,6.97
2018-12-23T16:15:38.200Z,6.63
2018-12-23T16:18:19.204Z,7.40
2018-12-23T16:21:00.626Z,7.27
2018-12-23T16:23:41.531Z,6.70
2018-12-23T16:26:22.424Z,6.27
2018-12-23T16:29:03.591Z,5.80
2018-12-23T16:31:44.821Z,6.60
2018-12-23T16:34:25.614Z,7.47
2018-12-23T16:37:06.477Z,7.90
2018-12-23T16:39:47.483Z,8.40
2018-12-23T16:42:28.185Z,9.47
2018-12-23T16:45:09.458Z,9.53
2018-12-23T16:47:50.286Z,10.13
2018-12-23T16:50:31.341Z,10.27
2018-12-23T16:53:12.224Z,12.37
2018-12-23T16:55:53.191Z,13.60
2018-12-23T16:58:34.403Z,16.03
2018-12-23T17:01:15.293Z,15.90
2018-12-23T17:03:56.554Z,19.40
2018-12-23T17:06:37.393Z,19.77
2018-12-23T17:09:18.414Z,16.53
2018-12-23T17:11:59.524Z,14.03
2018-12-23T17:14:40.752Z,13.93
2018-12-23T17:17:21.570Z,14.77
2018-12-23T17:20:02.489Z,15.67
2018-12-23T17:22:43.765Z,15.03
2018-12-23T17:25:25.180Z,16.10
2018-12-23T17:28:06.406Z,16.70
2018-12-23T17:30:47.303Z,17.33
2018-12-23T17:33:28.450Z,15.50
2018-12-23T17:36:09.833Z,17.60
2018-12-23T17:38:50.375Z,16.27
2018-12-23T17:41:30.885Z,16.23
2018-12-23T17:44:12.201Z,18.93
2018-12-23T17:46:53.221Z,19.43
2018-12-23T17:49:34.044Z,20.57
2018-12-23T17:52:22.951Z,20.30
2018-12-23T17:54:57.961Z,20.30
2018-12-23T17:57:38.765Z,19.97
2018-12-23T18:00:19.246Z,18.33
2018-12-23T18:02:59.891Z,16.83
2018-12-23T18:05:40.615Z,15.37
2018-12-23T18:08:21.749Z,14.77
2018-12-23T18:11:02.788Z,14.10
2018-12-23T18:13:43.687Z,14.03
2018-12-23T18:16:24.641Z,14.50
2018-12-23T18:19:05.595Z,16.10
2018-12-23T18:21:46.966Z,17.30
2018-12-23T18:24:28.119Z,17.03
2018-12-23T18:27:08.906Z,16.57
2018-12-23T18:29:49.833Z,16.77
2018-12-23T18:32:30.909Z,16.50
2018-12-23T18:35:11.773Z,16.67
2018-12-23T18:37:52.607Z,17.27
2018-12-23T18:40:33.721Z,15.50
2018-12-23T18:43:14.455Z,17.50
2018-12-23T18:45:55.258Z,13.87
2018-12-23T18:48:36.312Z,12.73
2018-12-23T18:51:17.201Z,11.47
2018-12-23T18:53:58.149Z,10.03
2018-12-23T18:56:38.770Z,8.97
2018-12-23T18:59:19.629Z,7.87
2018-12-23T19:02:00.794Z,8.17
2018-12-23T19:04:41.849Z,8.63
2018-12-23T19:07:22.671Z,10.97
2018-12-23T19:10:03.354Z,10.03
2018-12-23T19:12:44.120Z,8.30
2018-12-23T19:15:24.758Z,8.40
2018-12-23T19:18:05.989Z,8.03
2018-12-23T19:20:46.689Z,6.60
2018-12-23T19:23:27.946Z,5.93
2018-12-23T19:26:09.035Z,6.27
2018-12-23T19:28:49.624Z,6.30
2018-12-23T19:31:30.601Z,6.20
2018-12-23T19:34:11.345Z,6.70
2018-12-23T19:36:52.185Z,9.00
2018-12-23T19:39:33.389Z,13.00
2018-12-23T19:42:14.727Z,14.60
2018-12-23T19:44:55.869Z,9.90
2018-12-23T19:47:36.671Z,7.73
2018-12-23T19:50:18.075Z,5.53
2018-12-23T19:52:58.735Z,5.13
2018-12-23T19:55:40.122Z,3.30
2018-12-23T19:58:21.096Z,2.90
2018-12-23T20:01:02.225Z,2.20
2018-12-23T20:03:42.605Z,2.30
2018-12-23T20:06:23.824Z,1.70
2018-12-23T20:09:04.864Z,1.60
2018-12-23T20:11:45.801Z,1.50
2018-12-23T20:14:26.799Z,1.47
2018-12-23T20:17:07.840Z,2.07
2018-12-23T20:19:48.587Z,2.40
2018-12-23T20:22:29.647Z,1.90
2018-12-23T20:25:10.419Z,2.10
2018-12-23T20:27:51.471Z,1.90
2018-12-23T20:30:32.654Z,2.00
2018-12-23T20:33:13.951Z,1.77
2018-12-23T20:35:54.526Z,1.90
2018-12-23T20:38:35.463Z,2.40
2018-12-23T20:41:16.529Z,2.07
2018-12-23T20:43:57.410Z,1.73
2018-12-23T20:46:38.228Z,2.10
2018-12-23T20:49:19.228Z,1.97
2018-12-23T20:51:59.946Z,1.77
2018-12-23T20:54:40.755Z,1.67
2018-12-23T20:57:21.650Z,1.90
2018-12-23T21:00:02.511Z,2.00
2018-12-23T21:02:43.215Z,1.83
2018-12-23T21:05:23.721Z,2.47
2018-12-23T21:08:05.064Z,2.77
2018-12-23T21:10:45.700Z,2.20
2018-12-23T21:13:26.717Z,2.23
2018-12-23T21:16:07.758Z,1.90
2018-12-23T21:18:48.441Z,1.97
2018-12-23T21:21:29.609Z,2.03
2018-12-23T21:24:10.563Z,2.30
2018-12-23T21:26:51.480Z,2.10
2018-12-23T21:29:32.201Z,1.80
2018-12-23T21:32:13.036Z,1.70
2018-12-23T21:34:53.959Z,2.00
2018-12-23T21:37:34.826Z,2.20
2018-12-23T21:40:15.904Z,2.13
2018-12-23T21:42:56.690Z,1.80
2018-12-23T21:45:37.774Z,2.20
2018-12-23T21:48:18.634Z,1.97
2018-12-23T21:50:59.510Z,2.50
2018-12-23T21:53:40.048Z,1.97
2018-12-23T21:56:21.129Z,1.67
2018-12-23T21:59:02.099Z,2.00
2018-12-23T22:01:42.736Z,1.70
2018-12-23T22:04:50.085Z,2.23
2018-12-23T22:07:57.428Z,2.60
2018-12-23T22:11:04.725Z,1.43
2018-12-23T22:19:41.654Z,1.33
2018-12-23T22:22:29.681Z,1.63
2018-12-23T22:25:17.661Z,1.60
2018-12-23T22:30:58.880Z,0.80
2018-12-23T22:33:39.824Z,1.00
2018-12-23T22:36:20.958Z,0.67
2018-12-23T22:39:01.605Z,0.63
2018-12-23T22:41:42.320Z,0.70
2018-12-23T22:44:23.632Z,0.60
2018-12-23T22:47:04.574Z,0.87
2018-12-23T22:49:45.329Z,0.50
2018-12-23T22:52:26.698Z,0.80
2018-12-23T22:55:07.814Z,0.90
2018-12-23T22:57:48.744Z,1.03
2018-12-23T23:00:31.581Z,0.93
2018-12-23T23:03:12.122Z,1.20
2018-12-23T23:05:53.385Z,1.30
2018-12-23T23:11:33.948Z,0.70
2018-12-23T23:14:14.768Z,0.77
2018-12-23T23:16:55.761Z,0.90
2018-12-23T23:22:46.673Z,0.70
2018-12-23T23:25:34.741Z,0.80
2018-12-23T23:28:22.756Z,3.67
2018-12-23T23:33:56.994Z,0.90
2018-12-23T23:39:37.474Z,0.90
2018-12-23T23:42:18.533Z,0.70
2018-12-23T23:44:59.333Z,0.80
2018-12-23T23:47:40.215Z,0.90
2018-12-23T23:50:21.198Z,0.70
2018-12-23T23:53:02.113Z,1.10
2018-12-23T23:55:43.269Z,1.00
2018-12-23T23:58:24.539Z,1.40
